Snoqualmie River: Snoqualmie Falls station

back to: Snoqualmie river
Snoqualmie Falls station Summary - (NOAA Hydrograph: SQUW1)
flood stage: 12.88 ft
Latest reading:
Sun08/20 08:30 pm 2.59 ft 356 cfs (+12/hr)
Past 24hr max:
Sun08/20 02:15 am 2.63 ft 369 cfs
Forecasted crests: (published Sun 08/20/17 07:17 am)
Thu08/24 11:00 pm 2.6 ft 359 cfs

Snoqualmie Falls station Details

Latest Readings

Last 100 Readings:
Sun08/20 08:30 pm 2.59 ft 356 cfs
Sun08/20 08:15 pm 2.58 ft 353 cfs
Sun08/20 08:00 pm 2.59 ft 356 cfs
Sun08/20 07:45 pm 2.58 ft 353 cfs
Sun08/20 07:30 pm 2.58 ft 353 cfs
Sun08/20 07:15 pm 2.58 ft 353 cfs
Sun08/20 07:00 pm 2.58 ft 353 cfs
Sun08/20 06:45 pm 2.58 ft 353 cfs
Sun08/20 06:30 pm 2.57 ft 351 cfs
Sun08/20 06:15 pm 2.58 ft 353 cfs
Sun08/20 06:00 pm 2.58 ft 353 cfs
Sun08/20 05:45 pm 2.58 ft 353 cfs
Sun08/20 05:30 pm 2.59 ft 356 cfs
Sun08/20 05:15 pm 2.59 ft 356 cfs
Sun08/20 05:00 pm 2.59 ft 356 cfs
Sun08/20 04:45 pm 2.59 ft 356 cfs
Sun08/20 04:30 pm 2.58 ft 353 cfs
Sun08/20 04:15 pm 2.58 ft 353 cfs
Sun08/20 04:00 pm 2.58 ft 353 cfs
Sun08/20 03:45 pm 2.58 ft 353 cfs
Sun08/20 03:30 pm 2.57 ft 351 cfs
Sun08/20 03:15 pm 2.58 ft 353 cfs
Sun08/20 03:00 pm 2.58 ft 353 cfs
Sun08/20 02:45 pm 2.58 ft 353 cfs
Sun08/20 02:30 pm 2.58 ft 353 cfs
Sun08/20 02:15 pm 2.59 ft 356 cfs
Sun08/20 02:00 pm 2.59 ft 356 cfs
Sun08/20 01:45 pm 2.6 ft 359 cfs
Sun08/20 01:30 pm 2.59 ft 356 cfs
Sun08/20 01:15 pm 2.6 ft 359 cfs
Sun08/20 01:00 pm 2.6 ft 359 cfs
Sun08/20 12:45 pm 2.6 ft 359 cfs
Sun08/20 12:30 pm 2.6 ft 359 cfs
Sun08/20 12:15 pm 2.6 ft 359 cfs
Sun08/20 12:00 pm 2.6 ft 359 cfs
Sun08/20 11:45 am 2.6 ft 359 cfs
Sun08/20 11:30 am 2.61 ft 362 cfs
Sun08/20 11:15 am 2.61 ft 362 cfs
Sun08/20 11:00 am 2.61 ft 362 cfs
Sun08/20 10:45 am 2.62 ft 366 cfs
Sun08/20 10:30 am 2.62 ft 366 cfs
Sun08/20 10:15 am 2.61 ft 362 cfs
Sun08/20 10:00 am 2.61 ft 362 cfs
Sun08/20 09:45 am 2.61 ft 362 cfs
Sun08/20 09:30 am 2.61 ft 362 cfs
Sun08/20 09:15 am 2.61 ft 362 cfs
Sun08/20 09:00 am 2.62 ft 366 cfs
Sun08/20 08:45 am 2.62 ft 366 cfs
Sun08/20 08:30 am 2.62 ft 366 cfs
Sun08/20 08:15 am 2.62 ft 366 cfs
Sun08/20 08:00 am 2.62 ft 366 cfs
Sun08/20 07:45 am 2.62 ft 366 cfs
Sun08/20 07:30 am 2.63 ft 369 cfs
Sun08/20 07:15 am 2.63 ft 369 cfs
Sun08/20 07:00 am 2.63 ft 369 cfs
Sun08/20 06:45 am 2.63 ft 369 cfs
Sun08/20 06:30 am 2.62 ft 366 cfs
Sun08/20 06:15 am 2.62 ft 366 cfs
Sun08/20 06:00 am 2.62 ft 366 cfs
Sun08/20 05:45 am 2.63 ft 369 cfs
Sun08/20 05:30 am 2.62 ft 366 cfs
Sun08/20 05:15 am 2.62 ft 366 cfs
Sun08/20 05:00 am 2.62 ft 366 cfs
Sun08/20 04:45 am 2.62 ft 366 cfs
Sun08/20 04:30 am 2.62 ft 366 cfs
Sun08/20 04:15 am 2.62 ft 366 cfs
Sun08/20 04:00 am 2.63 ft 369 cfs
Sun08/20 03:45 am 2.63 ft 369 cfs
Sun08/20 03:30 am 2.63 ft 369 cfs
Sun08/20 03:15 am 2.63 ft 369 cfs
Sun08/20 03:00 am 2.63 ft 369 cfs
Sun08/20 02:45 am 2.62 ft 366 cfs
Sun08/20 02:30 am 2.63 ft 369 cfs
Sun08/20 02:15 am 2.63 ft 369 cfs
Sun08/20 02:00 am 2.62 ft 366 cfs
Sun08/20 01:45 am 2.62 ft 366 cfs
Sun08/20 01:30 am 2.62 ft 366 cfs
Sun08/20 01:15 am 2.61 ft 362 cfs
Sun08/20 01:00 am 2.62 ft 366 cfs
Sun08/20 12:45 am 2.62 ft 366 cfs
Sun08/20 12:30 am 2.62 ft 366 cfs
Sun08/20 12:15 am 2.62 ft 366 cfs
Sun08/20 12:00 am 2.62 ft 366 cfs
Sat08/19 11:45 pm 2.62 ft 366 cfs
Sat08/19 11:30 pm 2.62 ft 366 cfs
Sat08/19 11:15 pm 2.61 ft 362 cfs
Sat08/19 11:00 pm 2.61 ft 362 cfs
Sat08/19 10:45 pm 2.6 ft 359 cfs
Sat08/19 10:30 pm 2.6 ft 359 cfs
Sat08/19 10:15 pm 2.59 ft 356 cfs
Sat08/19 10:00 pm 2.6 ft 359 cfs
Sat08/19 09:45 pm 2.6 ft 359 cfs
Sat08/19 09:30 pm 2.61 ft 362 cfs
Sat08/19 09:15 pm 2.6 ft 359 cfs
Sat08/19 09:00 pm 2.6 ft 359 cfs
Sat08/19 08:45 pm 2.6 ft 359 cfs
Sat08/19 08:30 pm 2.6 ft 359 cfs
Sat08/19 08:15 pm 2.6 ft 359 cfs
Sat08/19 08:00 pm 2.59 ft 356 cfs
Sat08/19 07:45 pm 2.59 ft 356 cfs

Latest Forecasts

Currently Forecasted Readings:
Sun08/20 11:00 am 2.61 ft 363 cfs
Sun08/20 05:00 pm 2.61 ft 362 cfs
Sun08/20 11:00 pm 2.6 ft 360 cfs
Mon08/21 05:00 am 2.6 ft 358 cfs
Mon08/21 11:00 am 2.59 ft 356 cfs
Mon08/21 05:00 pm 2.59 ft 355 cfs
Mon08/21 11:00 pm 2.58 ft 354 cfs
Tue08/22 05:00 am 2.58 ft 353 cfs
Tue08/22 11:00 am 2.57 ft 352 cfs
Tue08/22 05:00 pm 2.57 ft 351 cfs
Tue08/22 11:00 pm 2.56 ft 349 cfs
Wed08/23 05:00 am 2.56 ft 348 cfs
Wed08/23 11:00 am 2.56 ft 346 cfs
Wed08/23 05:00 pm 2.55 ft 345 cfs
Wed08/23 11:00 pm 2.55 ft 344 cfs
Thu08/24 05:00 am 2.56 ft 348 cfs
Thu08/24 11:00 am 2.56 ft 349 cfs
Thu08/24 05:00 pm 2.57 ft 351 cfs
Thu08/24 11:00 pm 2.6 ft 359 cfs
Fri08/25 05:00 am 2.59 ft 356 cfs
Fri08/25 11:00 am 2.56 ft 346 cfs
Fri08/25 05:00 pm 2.53 ft 340 cfs
Fri08/25 11:00 pm 2.52 ft 337 cfs
Sat08/26 05:00 am 2.52 ft 336 cfs
Sat08/26 11:00 am 2.52 ft 335 cfs
Sat08/26 05:00 pm 2.51 ft 334 cfs
Sat08/26 11:00 pm 2.51 ft 333 cfs
Sun08/27 05:00 am 2.5 ft 332 cfs
Sun08/27 11:00 am 2.5 ft 331 cfs
Sun08/27 05:00 pm 2.5 ft 331 cfs
Sun08/27 11:00 pm 2.5 ft 330 cfs
Mon08/28 05:00 am 2.49 ft 329 cfs
Mon08/28 11:00 am 2.49 ft 328 cfs
Mon08/28 05:00 pm 2.49 ft 327 cfs
Mon08/28 11:00 pm 2.49 ft 327 cfs
Tue08/29 05:00 am 2.48 ft 326 cfs
Tue08/29 11:00 am 2.48 ft 325 cfs
Tue08/29 05:00 pm 2.48 ft 324 cfs
Tue08/29 11:00 pm 2.47 ft 323 cfs
Wed08/30 05:00 am 2.5 ft 332 cfs

Snoqualmie River flood gauge data supplied by the
National Weather Service Northwest River Forecast Center.

Sign up for Floodzilla alerts.